sensor_id;sensor_type;location;lat;lon;timestamp;noise_LAeq;noise_LA_min;noise_LA_max;noise_LA01;noise_LA95
76339;Laerm;26644;50.248;19.032;2023-05-19T00:01:22;48.11;41.83;62.53;;
76339;Laerm;26644;50.248;19.032;2023-05-19T00:04:28;48.71;42.23;59.97;;
76339;Laerm;26644;50.248;19.032;2023-05-19T00:07:38;48.71;42.02;59.19;;
76339;Laerm;26644;50.248;19.032;2023-05-19T00:10:44;45.85;41.49;51.02;;
76339;Laerm;26644;50.248;19.032;2023-05-19T00:13:50;46.93;42.18;53.21;;
76339;Laerm;26644;50.248;19.032;2023-05-19T00:16:56;46.98;42.63;50.79;;
76339;Laerm;26644;50.248;19.032;2023-05-19T00:20:04;46.63;41.99;52.25;;
76339;Laerm;26644;50.248;19.032;2023-05-19T00:23:12;46.38;41.61;51.01;;
76339;Laerm;26644;50.248;19.032;2023-05-19T00:26:17;46.23;42.66;53.62;;
76339;Laerm;26644;50.248;19.032;2023-05-19T00:29:29;45.77;41.98;51.76;;
76339;Laerm;26644;50.248;19.032;2023-05-19T00:32:35;45.66;41.36;50.93;;
76339;Laerm;26644;50.248;19.032;2023-05-19T00:35:39;45.36;40.92;51.85;;
76339;Laerm;26644;50.248;19.032;2023-05-19T00:38:47;45.72;42.39;51.72;;
76339;Laerm;26644;50.248;19.032;2023-05-19T00:41:51;44.88;41.59;49.38;;
76339;Laerm;26644;50.248;19.032;2023-05-19T00:44:57;48.66;42.04;61.95;;
76339;Laerm;26644;50.248;19.032;2023-05-19T00:48:16;48.00;40.69;61.15;;
76339;Laerm;26644;50.248;19.032;2023-05-19T00:51:38;45.61;41.75;56.87;;
76339;Laerm;26644;50.248;19.032;2023-05-19T00:55:01;46.31;41.61;52.54;;
76339;Laerm;26644;50.248;19.032;2023-05-19T00:58:21;47.04;42.10;58.46;;
76339;Laerm;26644;50.248;19.032;2023-05-19T01:01:45;46.38;41.97;51.53;;
76339;Laerm;26644;50.248;19.032;2023-05-19T01:05:07;46.23;41.97;55.47;;
76339;Laerm;26644;50.248;19.032;2023-05-19T01:08:27;45.56;40.70;50.67;;
76339;Laerm;26644;50.248;19.032;2023-05-19T01:11:50;46.24;41.84;50.98;;
76339;Laerm;26644;50.248;19.032;2023-05-19T01:15:11;45.43;40.96;51.00;;
76339;Laerm;26644;50.248;19.032;2023-05-19T01:18:44;45.63;41.46;49.93;;
76339;Laerm;26644;50.248;19.032;2023-05-19T01:22:31;46.45;41.67;58.34;;
76339;Laerm;26644;50.248;19.032;2023-05-19T01:26:21;47.03;43.68;52.40;;
76339;Laerm;26644;50.248;19.032;2023-05-19T01:30:20;46.50;42.64;53.29;;
76339;Laerm;26644;50.248;19.032;2023-05-19T01:33:43;47.19;43.00;54.90;;
76339;Laerm;26644;50.248;19.032;2023-05-19T01:37:06;47.27;42.98;54.36;;
76339;Laerm;26644;50.248;19.032;2023-05-19T01:40:28;47.78;44.03;57.50;;
76339;Laerm;26644;50.248;19.032;2023-05-19T01:43:49;47.89;43.31;56.19;;
76339;Laerm;26644;50.248;19.032;2023-05-19T01:47:13;48.88;42.19;61.29;;
76339;Laerm;26644;50.248;19.032;2023-05-19T01:50:33;48.32;42.96;59.35;;
76339;Laerm;26644;50.248;19.032;2023-05-19T01:53:53;48.65;43.53;56.74;;
76339;Laerm;26644;50.248;19.032;2023-05-19T01:57:23;49.92;42.93;62.47;;
76339;Laerm;26644;50.248;19.032;2023-05-19T02:00:52;48.89;42.82;61.13;;
76339;Laerm;26644;50.248;19.032;2023-05-19T02:04:32;49.81;44.58;60.95;;
76339;Laerm;26644;50.248;19.032;2023-05-19T02:08:10;49.14;44.22;61.77;;
76339;Laerm;26644;50.248;19.032;2023-05-19T02:11:30;48.89;43.98;60.08;;
76339;Laerm;26644;50.248;19.032;2023-05-19T02:14:49;50.45;43.84;58.55;;
76339;Laerm;26644;50.248;19.032;2023-05-19T02:17:59;51.13;44.63;69.59;;
76339;Laerm;26644;50.248;19.032;2023-05-19T02:21:07;48.20;43.58;55.26;;
76339;Laerm;26644;50.248;19.032;2023-05-19T02:24:14;47.99;44.17;52.99;;
76339;Laerm;26644;50.248;19.032;2023-05-19T02:27:18;49.83;43.78;60.18;;
76339;Laerm;26644;50.248;19.032;2023-05-19T02:30:24;51.60;46.28;63.69;;
76339;Laerm;26644;50.248;19.032;2023-05-19T02:33:28;51.13;45.27;64.60;;
76339;Laerm;26644;50.248;19.032;2023-05-19T02:36:39;50.72;45.67;62.06;;
76339;Laerm;26644;50.248;19.032;2023-05-19T02:39:44;49.50;44.94;55.17;;
76339;Laerm;26644;50.248;19.032;2023-05-19T02:42:49;50.42;46.30;60.24;;
76339;Laerm;26644;50.248;19.032;2023-05-19T02:45:54;49.64;45.53;53.31;;
76339;Laerm;26644;50.248;19.032;2023-05-19T02:49:01;49.32;44.85;54.74;;
76339;Laerm;26644;50.248;19.032;2023-05-19T02:52:09;49.92;46.46;56.97;;
76339;Laerm;26644;50.248;19.032;2023-05-19T02:55:14;50.53;46.57;55.83;;
76339;Laerm;26644;50.248;19.032;2023-05-19T02:58:19;51.09;46.90;61.86;;
76339;Laerm;26644;50.248;19.032;2023-05-19T03:01:38;50.24;45.78;55.74;;
76339;Laerm;26644;50.248;19.032;2023-05-19T03:04:58;50.96;47.18;58.77;;
76339;Laerm;26644;50.248;19.032;2023-05-19T03:08:21;51.20;47.72;60.13;;
76339;Laerm;26644;50.248;19.032;2023-05-19T03:11:41;51.59;48.42;62.50;;
76339;Laerm;26644;50.248;19.032;2023-05-19T03:15:00;52.71;49.01;67.23;;
76339;Laerm;26644;50.248;19.032;2023-05-19T03:18:20;52.02;48.77;59.12;;
76339;Laerm;26644;50.248;19.032;2023-05-19T03:21:40;52.21;49.35;60.80;;
76339;Laerm;26644;50.248;19.032;2023-05-19T03:24:47;52.07;48.50;64.05;;
76339;Laerm;26644;50.248;19.032;2023-05-19T03:27:55;52.01;48.67;56.13;;
76339;Laerm;26644;50.248;19.032;2023-05-19T03:31:00;52.53;49.52;61.07;;
76339;Laerm;26644;50.248;19.032;2023-05-19T03:34:10;52.67;49.39;57.42;;
76339;Laerm;26644;50.248;19.032;2023-05-19T03:37:16;52.66;49.09;60.40;;
76339;Laerm;26644;50.248;19.032;2023-05-19T03:40:23;53.33;49.70;62.78;;
76339;Laerm;26644;50.248;19.032;2023-05-19T03:43:35;53.11;49.71;59.53;;
76339;Laerm;26644;50.248;19.032;2023-05-19T03:46:42;53.38;49.95;58.68;;
76339;Laerm;26644;50.248;19.032;2023-05-19T03:50:19;53.53;50.17;60.39;;
76339;Laerm;26644;50.248;19.032;2023-05-19T03:53:31;55.16;51.37;69.97;;
76339;Laerm;26644;50.248;19.032;2023-05-19T03:56:42;57.59;51.47;71.28;;
76339;Laerm;26644;50.248;19.032;2023-05-19T03:59:46;54.09;50.76;63.93;;
76339;Laerm;26644;50.248;19.032;2023-05-19T04:02:52;53.47;50.56;60.85;;
76339;Laerm;26644;50.248;19.032;2023-05-19T04:05:56;53.67;49.92;67.07;;
76339;Laerm;26644;50.248;19.032;2023-05-19T04:09:16;53.38;50.29;63.72;;
76339;Laerm;26644;50.248;19.032;2023-05-19T04:12:38;52.46;49.42;57.20;;
76339;Laerm;26644;50.248;19.032;2023-05-19T04:15:58;53.06;49.79;59.63;;
76339;Laerm;26644;50.248;19.032;2023-05-19T04:19:18;53.04;49.76;58.91;;
76339;Laerm;26644;50.248;19.032;2023-05-19T04:22:37;52.99;50.34;59.11;;
76339;Laerm;26644;50.248;19.032;2023-05-19T04:25:57;53.49;50.51;61.98;;
76339;Laerm;26644;50.248;19.032;2023-05-19T04:29:19;53.69;50.92;68.28;;
76339;Laerm;26644;50.248;19.032;2023-05-19T04:32:25;53.92;51.06;64.51;;
76339;Laerm;26644;50.248;19.032;2023-05-19T04:35:32;54.40;51.15;63.90;;
76339;Laerm;26644;50.248;19.032;2023-05-19T04:38:39;54.28;51.25;65.51;;
76339;Laerm;26644;50.248;19.032;2023-05-19T04:41:46;54.08;50.67;74.14;;
76339;Laerm;26644;50.248;19.032;2023-05-19T04:44:54;54.31;50.74;66.45;;
76339;Laerm;26644;50.248;19.032;2023-05-19T04:48:02;53.63;50.82;65.99;;
76339;Laerm;26644;50.248;19.032;2023-05-19T04:51:08;54.16;50.68;65.69;;
76339;Laerm;26644;50.248;19.032;2023-05-19T04:54:14;53.80;51.14;59.94;;
76339;Laerm;26644;50.248;19.032;2023-05-19T04:57:20;54.20;50.52;59.44;;
76339;Laerm;26644;50.248;19.032;2023-05-19T05:00:27;54.26;50.36;65.15;;
76339;Laerm;26644;50.248;19.032;2023-05-19T05:03:38;54.51;51.29;68.11;;
76339;Laerm;26644;50.248;19.032;2023-05-19T05:06:45;54.77;50.64;66.01;;
76339;Laerm;26644;50.248;19.032;2023-05-19T05:09:51;54.11;50.80;63.63;;
76339;Laerm;26644;50.248;19.032;2023-05-19T05:13:12;54.75;51.43;68.04;;
76339;Laerm;26644;50.248;19.032;2023-05-19T05:16:36;55.47;51.29;66.16;;
76339;Laerm;26644;50.248;19.032;2023-05-19T05:20:01;55.01;51.47;64.18;;
76339;Laerm;26644;50.248;19.032;2023-05-19T05:23:22;54.32;50.99;63.07;;
76339;Laerm;26644;50.248;19.032;2023-05-19T05:26:43;54.46;51.38;63.59;;
76339;Laerm;26644;50.248;19.032;2023-05-19T05:29:49;55.25;51.69;70.90;;
76339;Laerm;26644;50.248;19.032;2023-05-19T05:32:57;59.33;51.02;78.76;;
76339;Laerm;26644;50.248;19.032;2023-05-19T05:36:08;57.44;51.48;76.57;;
76339;Laerm;26644;50.248;19.032;2023-05-19T05:39:14;55.37;51.27;65.95;;
76339;Laerm;26644;50.248;19.032;2023-05-19T05:42:21;55.60;51.79;70.32;;
76339;Laerm;26644;50.248;19.032;2023-05-19T05:45:26;55.52;51.32;61.21;;
76339;Laerm;26644;50.248;19.032;2023-05-19T05:48:36;54.62;51.07;62.95;;
76339;Laerm;26644;50.248;19.032;2023-05-19T05:51:44;54.57;51.57;60.70;;
76339;Laerm;26644;50.248;19.032;2023-05-19T05:54:50;54.42;51.57;58.01;;
76339;Laerm;26644;50.248;19.032;2023-05-19T05:57:56;55.08;51.52;65.93;;
76339;Laerm;26644;50.248;19.032;2023-05-19T06:01:03;54.17;51.07;62.58;;
76339;Laerm;26644;50.248;19.032;2023-05-19T06:04:13;54.29;51.01;64.36;;
76339;Laerm;26644;50.248;19.032;2023-05-19T06:07:18;53.65;50.53;60.26;;
76339;Laerm;26644;50.248;19.032;2023-05-19T06:10:23;54.45;51.15;62.90;;
76339;Laerm;26644;50.248;19.032;2023-05-19T06:13:30;54.92;51.56;63.15;;
76339;Laerm;26644;50.248;19.032;2023-05-19T06:16:34;54.97;50.86;68.90;;
76339;Laerm;26644;50.248;19.032;2023-05-19T06:19:42;55.15;51.01;63.97;;
76339;Laerm;26644;50.248;19.032;2023-05-19T06:22:47;55.76;52.35;60.80;;
76339;Laerm;26644;50.248;19.032;2023-05-19T06:25:54;55.43;51.90;62.92;;
76339;Laerm;26644;50.248;19.032;2023-05-19T06:28:59;59.54;52.54;72.28;;
76339;Laerm;26644;50.248;19.032;2023-05-19T06:32:04;55.45;50.94;65.04;;
76339;Laerm;26644;50.248;19.032;2023-05-19T06:35:27;55.62;52.37;65.02;;
76339;Laerm;26644;50.248;19.032;2023-05-19T06:38:47;55.10;51.52;62.35;;
76339;Laerm;26644;50.248;19.032;2023-05-19T06:42:06;55.57;52.01;65.65;;
76339;Laerm;26644;50.248;19.032;2023-05-19T06:45:48;55.50;51.99;70.40;;
76339;Laerm;26644;50.248;19.032;2023-05-19T06:49:09;56.69;51.49;75.23;;
76339;Laerm;26644;50.248;19.032;2023-05-19T06:52:36;54.33;51.14;62.25;;
76339;Laerm;26644;50.248;19.032;2023-05-19T06:55:42;55.27;51.73;65.29;;
76339;Laerm;26644;50.248;19.032;2023-05-19T06:58:48;54.94;51.79;68.35;;
76339;Laerm;26644;50.248;19.032;2023-05-19T07:01:55;54.15;50.76;65.76;;
76339;Laerm;26644;50.248;19.032;2023-05-19T07:04:59;54.90;51.25;60.89;;
76339;Laerm;26644;50.248;19.032;2023-05-19T07:08:07;55.72;52.53;61.51;;
76339;Laerm;26644;50.248;19.032;2023-05-19T07:11:27;54.40;50.67;58.55;;
76339;Laerm;26644;50.248;19.032;2023-05-19T07:14:47;54.99;50.98;62.32;;
76339;Laerm;26644;50.248;19.032;2023-05-19T07:18:07;56.41;50.80;66.32;;
76339;Laerm;26644;50.248;19.032;2023-05-19T07:21:27;56.78;52.30;70.81;;
76339;Laerm;26644;50.248;19.032;2023-05-19T07:24:49;55.94;52.06;67.50;;
76339;Laerm;26644;50.248;19.032;2023-05-19T07:27:55;56.02;51.86;67.80;;
76339;Laerm;26644;50.248;19.032;2023-05-19T07:30:59;54.89;50.70;61.57;;
76339;Laerm;26644;50.248;19.032;2023-05-19T07:34:04;53.65;50.25;64.01;;
76339;Laerm;26644;50.248;19.032;2023-05-19T07:37:09;54.34;50.98;62.06;;
76339;Laerm;26644;50.248;19.032;2023-05-19T07:40:17;55.93;51.75;75.48;;
76339;Laerm;26644;50.248;19.032;2023-05-19T07:43:22;55.90;51.52;69.43;;
76339;Laerm;26644;50.248;19.032;2023-05-19T07:46:41;54.52;51.66;67.91;;
76339;Laerm;26644;50.248;19.032;2023-05-19T07:49:46;55.34;51.67;67.39;;
76339;Laerm;26644;50.248;19.032;2023-05-19T07:52:51;55.88;52.44;68.97;;
76339;Laerm;26644;50.248;19.032;2023-05-19T07:55:59;57.36;52.37;73.90;;
76339;Laerm;26644;50.248;19.032;2023-05-19T07:59:04;55.14;50.98;68.84;;
76339;Laerm;26644;50.248;19.032;2023-05-19T08:02:09;56.96;50.22;74.96;;
76339;Laerm;26644;50.248;19.032;2023-05-19T08:05:14;55.30;50.51;66.27;;
76339;Laerm;26644;50.248;19.032;2023-05-19T08:08:19;57.00;52.63;67.89;;
76339;Laerm;26644;50.248;19.032;2023-05-19T08:11:26;56.17;52.04;61.22;;
76339;Laerm;26644;50.248;19.032;2023-05-19T08:14:31;56.07;51.93;66.45;;
76339;Laerm;26644;50.248;19.032;2023-05-19T08:17:36;56.11;51.35;63.36;;
76339;Laerm;26644;50.248;19.032;2023-05-19T08:20:42;55.29;51.68;60.68;;
76339;Laerm;26644;50.248;19.032;2023-05-19T08:23:46;55.17;51.18;64.48;;
76339;Laerm;26644;50.248;19.032;2023-05-19T08:26:54;55.03;51.39;64.39;;
76339;Laerm;26644;50.248;19.032;2023-05-19T08:30:14;54.50;51.14;67.58;;
76339;Laerm;26644;50.248;19.032;2023-05-19T08:33:19;55.46;50.70;68.99;;
76339;Laerm;26644;50.248;19.032;2023-05-19T08:36:24;56.38;50.93;74.73;;
76339;Laerm;26644;50.248;19.032;2023-05-19T08:39:30;54.59;50.88;70.52;;
76339;Laerm;26644;50.248;19.032;2023-05-19T08:42:38;54.02;51.09;63.60;;
76339;Laerm;26644;50.248;19.032;2023-05-19T08:45:44;55.65;51.55;67.21;;
76339;Laerm;26644;50.248;19.032;2023-05-19T08:48:57;56.84;51.95;70.23;;
76339;Laerm;26644;50.248;19.032;2023-05-19T08:52:18;57.28;51.96;63.45;;
76339;Laerm;26644;50.248;19.032;2023-05-19T08:55:34;55.01;51.07;62.46;;
76339;Laerm;26644;50.248;19.032;2023-05-19T08:58:45;55.96;51.62;65.10;;
76339;Laerm;26644;50.248;19.032;2023-05-19T09:01:54;55.90;50.60;68.61;;
76339;Laerm;26644;50.248;19.032;2023-05-19T09:05:00;55.15;50.72;62.00;;
76339;Laerm;26644;50.248;19.032;2023-05-19T09:08:05;55.14;50.01;68.53;;
76339;Laerm;26644;50.248;19.032;2023-05-19T09:11:12;54.22;50.94;61.94;;
76339;Laerm;26644;50.248;19.032;2023-05-19T09:14:19;53.79;50.03;61.51;;
76339;Laerm;26644;50.248;19.032;2023-05-19T09:17:24;54.63;50.83;62.17;;
76339;Laerm;26644;50.248;19.032;2023-05-19T09:20:30;53.94;49.91;67.52;;
76339;Laerm;26644;50.248;19.032;2023-05-19T09:23:36;54.18;50.22;66.90;;
76339;Laerm;26644;50.248;19.032;2023-05-19T09:26:41;55.37;51.36;64.36;;
76339;Laerm;26644;50.248;19.032;2023-05-19T09:29:50;56.44;51.46;71.91;;
76339;Laerm;26644;50.248;19.032;2023-05-19T09:33:10;56.34;51.76;69.26;;
76339;Laerm;26644;50.248;19.032;2023-05-19T09:36:29;55.82;52.05;62.79;;
76339;Laerm;26644;50.248;19.032;2023-05-19T09:39:49;55.59;51.51;64.82;;
76339;Laerm;26644;50.248;19.032;2023-05-19T09:43:09;54.25;50.22;66.38;;
76339;Laerm;26644;50.248;19.032;2023-05-19T09:46:31;54.71;51.06;66.41;;
76339;Laerm;26644;50.248;19.032;2023-05-19T09:49:46;53.88;50.32;70.24;;
76339;Laerm;26644;50.248;19.032;2023-05-19T09:52:52;53.68;50.56;62.14;;
76339;Laerm;26644;50.248;19.032;2023-05-19T09:55:58;54.20;50.28;63.49;;
76339;Laerm;26644;50.248;19.032;2023-05-19T09:59:04;54.62;50.70;61.95;;
76339;Laerm;26644;50.248;19.032;2023-05-19T10:02:16;54.49;50.68;66.79;;
76339;Laerm;26644;50.248;19.032;2023-05-19T10:05:26;54.14;50.35;61.32;;
76339;Laerm;26644;50.248;19.032;2023-05-19T10:08:33;55.25;50.99;69.20;;
76339;Laerm;26644;50.248;19.032;2023-05-19T10:11:38;54.83;49.93;69.00;;
76339;Laerm;26644;50.248;19.032;2023-05-19T10:14:44;55.93;51.18;65.26;;
76339;Laerm;26644;50.248;19.032;2023-05-19T10:17:52;53.95;50.59;61.61;;
76339;Laerm;26644;50.248;19.032;2023-05-19T10:21:00;54.71;50.38;69.47;;
76339;Laerm;26644;50.248;19.032;2023-05-19T10:24:05;55.21;50.90;66.83;;
76339;Laerm;26644;50.248;19.032;2023-05-19T10:27:28;55.67;51.25;66.42;;
76339;Laerm;26644;50.248;19.032;2023-05-19T10:30:55;54.06;50.73;63.14;;
76339;Laerm;26644;50.248;19.032;2023-05-19T10:34:52;54.76;50.16;70.15;;
76339;Laerm;26644;50.248;19.032;2023-05-19T10:38:17;54.34;49.85;66.12;;
76339;Laerm;26644;50.248;19.032;2023-05-19T10:41:35;54.96;51.35;62.13;;
76339;Laerm;26644;50.248;19.032;2023-05-19T10:45:02;55.11;49.93;70.03;;
76339;Laerm;26644;50.248;19.032;2023-05-19T10:48:10;54.25;50.12;60.40;;
76339;Laerm;26644;50.248;19.032;2023-05-19T10:51:20;55.25;51.13;66.52;;
76339;Laerm;26644;50.248;19.032;2023-05-19T10:54:39;56.02;50.91;66.96;;
76339;Laerm;26644;50.248;19.032;2023-05-19T10:57:53;54.63;49.65;66.37;;
76339;Laerm;26644;50.248;19.032;2023-05-19T11:01:00;53.27;50.02;67.98;;
76339;Laerm;26644;50.248;19.032;2023-05-19T11:04:07;53.54;50.26;66.81;;
76339;Laerm;26644;50.248;19.032;2023-05-19T11:07:19;54.40;50.75;63.57;;
76339;Laerm;26644;50.248;19.032;2023-05-19T11:10:25;54.03;50.73;61.02;;
76339;Laerm;26644;50.248;19.032;2023-05-19T11:13:30;54.06;50.28;59.85;;
76339;Laerm;26644;50.248;19.032;2023-05-19T11:16:35;53.43;50.30;59.38;;
76339;Laerm;26644;50.248;19.032;2023-05-19T11:19:53;53.26;49.94;63.45;;
76339;Laerm;26644;50.248;19.032;2023-05-19T11:23:04;52.70;48.84;59.87;;
76339;Laerm;26644;50.248;19.032;2023-05-19T11:26:09;53.58;48.99;63.05;;
76339;Laerm;26644;50.248;19.032;2023-05-19T11:29:17;52.92;48.85;59.84;;
76339;Laerm;26644;50.248;19.032;2023-05-19T11:32:27;52.60;49.55;58.39;;
76339;Laerm;26644;50.248;19.032;2023-05-19T11:35:32;53.60;50.07;65.96;;
76339;Laerm;26644;50.248;19.032;2023-05-19T11:38:42;54.13;49.85;63.65;;
76339;Laerm;26644;50.248;19.032;2023-05-19T11:41:50;54.37;49.72;65.68;;
76339;Laerm;26644;50.248;19.032;2023-05-19T11:44:55;53.36;50.01;63.66;;
76339;Laerm;26644;50.248;19.032;2023-05-19T11:48:01;53.50;49.80;62.00;;
76339;Laerm;26644;50.248;19.032;2023-05-19T11:51:06;54.49;50.45;64.02;;
76339;Laerm;26644;50.248;19.032;2023-05-19T11:54:14;53.60;50.44;60.97;;
76339;Laerm;26644;50.248;19.032;2023-05-19T11:57:34;53.57;50.66;58.46;;
76339;Laerm;26644;50.248;19.032;2023-05-19T12:00:54;54.05;50.82;68.00;;
76339;Laerm;26644;50.248;19.032;2023-05-19T12:04:13;53.38;50.80;60.92;;
76339;Laerm;26644;50.248;19.032;2023-05-19T12:07:33;53.83;50.99;62.74;;
76339;Laerm;26644;50.248;19.032;2023-05-19T12:10:55;54.56;51.11;65.38;;
76339;Laerm;26644;50.248;19.032;2023-05-19T12:14:01;54.36;50.56;65.03;;
76339;Laerm;26644;50.248;19.032;2023-05-19T12:17:13;54.45;50.60;67.99;;
76339;Laerm;26644;50.248;19.032;2023-05-19T12:20:19;52.53;49.40;56.60;;
76339;Laerm;26644;50.248;19.032;2023-05-19T12:23:26;53.51;49.73;67.98;;
76339;Laerm;26644;50.248;19.032;2023-05-19T12:26:34;53.08;49.86;60.31;;
76339;Laerm;26644;50.248;19.032;2023-05-19T12:29:40;53.38;50.30;64.27;;
76339;Laerm;26644;50.248;19.032;2023-05-19T12:33:01;53.78;50.15;61.05;;
76339;Laerm;26644;50.248;19.032;2023-05-19T12:36:23;53.81;50.02;62.74;;
76339;Laerm;26644;50.248;19.032;2023-05-19T12:39:30;53.92;50.48;66.95;;
76339;Laerm;26644;50.248;19.032;2023-05-19T12:42:37;53.45;50.01;64.27;;
76339;Laerm;26644;50.248;19.032;2023-05-19T12:45:42;54.93;50.38;75.67;;
76339;Laerm;26644;50.248;19.032;2023-05-19T12:48:47;53.56;49.60;62.98;;
76339;Laerm;26644;50.248;19.032;2023-05-19T12:51:53;53.98;50.02;63.08;;
76339;Laerm;26644;50.248;19.032;2023-05-19T12:55:00;53.05;49.82;61.53;;
76339;Laerm;26644;50.248;19.032;2023-05-19T12:58:09;54.01;49.32;64.15;;
76339;Laerm;26644;50.248;19.032;2023-05-19T13:01:16;53.49;49.61;67.35;;
76339;Laerm;26644;50.248;19.032;2023-05-19T13:04:22;54.19;50.12;64.33;;
76339;Laerm;26644;50.248;19.032;2023-05-19T13:07:26;54.87;50.36;65.09;;
76339;Laerm;26644;50.248;19.032;2023-05-19T13:10:34;53.39;50.13;62.04;;
76339;Laerm;26644;50.248;19.032;2023-05-19T13:13:41;53.45;50.02;62.99;;
76339;Laerm;26644;50.248;19.032;2023-05-19T13:16:46;53.76;49.63;66.82;;
76339;Laerm;26644;50.248;19.032;2023-05-19T13:19:51;53.22;49.21;62.85;;
76339;Laerm;26644;50.248;19.032;2023-05-19T13:22:56;53.99;49.39;69.68;;
76339;Laerm;26644;50.248;19.032;2023-05-19T13:26:16;54.42;50.22;68.40;;
76339;Laerm;26644;50.248;19.032;2023-05-19T13:34:02;53.55;49.10;65.24;;
76339;Laerm;26644;50.248;19.032;2023-05-19T13:41:34;53.85;49.41;66.33;;
76339;Laerm;26644;50.248;19.032;2023-05-19T13:44:42;53.39;49.18;76.20;;
76339;Laerm;26644;50.248;19.032;2023-05-19T13:47:46;53.53;48.87;62.29;;
76339;Laerm;26644;50.248;19.032;2023-05-19T13:50:51;54.71;49.82;74.87;;
76339;Laerm;26644;50.248;19.032;2023-05-19T13:53:59;53.44;50.15;61.60;;
76339;Laerm;26644;50.248;19.032;2023-05-19T13:57:05;53.38;50.46;59.56;;
76339;Laerm;26644;50.248;19.032;2023-05-19T14:00:14;53.53;49.68;61.41;;
76339;Laerm;26644;50.248;19.032;2023-05-19T14:03:19;54.09;49.85;62.35;;
76339;Laerm;26644;50.248;19.032;2023-05-19T14:06:25;54.26;50.38;61.61;;
76339;Laerm;26644;50.248;19.032;2023-05-19T14:09:30;54.09;51.00;62.19;;
76339;Laerm;26644;50.248;19.032;2023-05-19T14:12:35;53.84;50.41;65.73;;
76339;Laerm;26644;50.248;19.032;2023-05-19T14:15:42;54.35;50.19;64.98;;
76339;Laerm;26644;50.248;19.032;2023-05-19T14:18:47;53.85;50.47;62.92;;
76339;Laerm;26644;50.248;19.032;2023-05-19T14:21:52;54.14;50.04;64.74;;
76339;Laerm;26644;50.248;19.032;2023-05-19T14:24:57;53.51;50.41;62.73;;
76339;Laerm;26644;50.248;19.032;2023-05-19T14:28:05;53.67;49.84;63.89;;
76339;Laerm;26644;50.248;19.032;2023-05-19T14:31:14;53.66;50.63;65.25;;
76339;Laerm;26644;50.248;19.032;2023-05-19T14:34:19;53.36;49.04;61.91;;
76339;Laerm;26644;50.248;19.032;2023-05-19T14:37:24;53.60;50.06;66.83;;
76339;Laerm;26644;50.248;19.032;2023-05-19T14:40:30;53.96;50.60;63.78;;
76339;Laerm;26644;50.248;19.032;2023-05-19T14:43:34;53.16;50.04;63.29;;
76339;Laerm;26644;50.248;19.032;2023-05-19T14:46:42;54.12;50.55;60.25;;
76339;Laerm;26644;50.248;19.032;2023-05-19T14:49:46;54.87;50.72;68.15;;
76339;Laerm;26644;50.248;19.032;2023-05-19T14:52:52;54.22;50.47;75.71;;
76339;Laerm;26644;50.248;19.032;2023-05-19T14:55:56;54.34;50.09;65.49;;
76339;Laerm;26644;50.248;19.032;2023-05-19T14:59:01;53.32;50.25;68.64;;
76339;Laerm;26644;50.248;19.032;2023-05-19T15:02:09;54.17;50.77;62.24;;
76339;Laerm;26644;50.248;19.032;2023-05-19T15:05:14;54.72;50.34;67.87;;
76339;Laerm;26644;50.248;19.032;2023-05-19T15:08:19;53.91;50.38;70.87;;
76339;Laerm;26644;50.248;19.032;2023-05-19T15:11:24;54.34;50.65;62.67;;
76339;Laerm;26644;50.248;19.032;2023-05-19T15:14:44;53.81;49.76;63.00;;
76339;Laerm;26644;50.248;19.032;2023-05-19T15:18:06;54.28;50.93;60.93;;
76339;Laerm;26644;50.248;19.032;2023-05-19T15:21:26;54.28;50.42;69.79;;
76339;Laerm;26644;50.248;19.032;2023-05-19T15:24:46;56.61;50.70;73.80;;
76339;Laerm;26644;50.248;19.032;2023-05-19T15:28:06;53.78;50.07;65.01;;
76339;Laerm;26644;50.248;19.032;2023-05-19T15:31:25;53.49;49.53;61.38;;
76339;Laerm;26644;50.248;19.032;2023-05-19T15:34:47;53.89;50.57;66.15;;
76339;Laerm;26644;50.248;19.032;2023-05-19T15:38:07;55.13;49.85;70.18;;
76339;Laerm;26644;50.248;19.032;2023-05-19T15:41:26;54.34;51.34;64.71;;
76339;Laerm;26644;50.248;19.032;2023-05-19T15:44:46;53.86;49.65;60.51;;
76339;Laerm;26644;50.248;19.032;2023-05-19T15:48:06;54.67;51.03;66.15;;
76339;Laerm;26644;50.248;19.032;2023-05-19T15:51:28;54.15;50.41;73.53;;
76339;Laerm;26644;50.248;19.032;2023-05-19T15:54:47;53.36;50.32;64.08;;
76339;Laerm;26644;50.248;19.032;2023-05-19T15:58:07;53.32;50.05;64.37;;
76339;Laerm;26644;50.248;19.032;2023-05-19T16:01:27;53.65;50.52;64.39;;
76339;Laerm;26644;50.248;19.032;2023-05-19T16:04:46;54.14;50.41;68.89;;
76339;Laerm;26644;50.248;19.032;2023-05-19T16:08:08;54.82;50.45;68.05;;
76339;Laerm;26644;50.248;19.032;2023-05-19T16:11:28;53.68;50.36;63.77;;
76339;Laerm;26644;50.248;19.032;2023-05-19T16:14:33;54.58;50.66;65.12;;
76339;Laerm;26644;50.248;19.032;2023-05-19T16:17:38;53.76;50.05;58.08;;
76339;Laerm;26644;50.248;19.032;2023-05-19T16:20:43;53.71;50.39;58.87;;
76339;Laerm;26644;50.248;19.032;2023-05-19T16:23:50;53.52;50.38;61.27;;
76339;Laerm;26644;50.248;19.032;2023-05-19T16:26:55;53.62;50.40;67.48;;
76339;Laerm;26644;50.248;19.032;2023-05-19T16:30:00;54.82;50.47;76.97;;
76339;Laerm;26644;50.248;19.032;2023-05-19T16:33:06;53.59;49.96;65.28;;
76339;Laerm;26644;50.248;19.032;2023-05-19T16:36:12;54.58;50.16;67.47;;
76339;Laerm;26644;50.248;19.032;2023-05-19T16:39:19;54.76;50.44;72.16;;
76339;Laerm;26644;50.248;19.032;2023-05-19T16:42:24;54.27;50.32;61.89;;
76339;Laerm;26644;50.248;19.032;2023-05-19T16:45:29;53.04;49.56;57.73;;
76339;Laerm;26644;50.248;19.032;2023-05-19T16:48:33;53.93;50.09;66.04;;
76339;Laerm;26644;50.248;19.032;2023-05-19T16:51:39;53.93;50.59;65.35;;
76339;Laerm;26644;50.248;19.032;2023-05-19T16:54:46;53.29;49.79;65.25;;
76339;Laerm;26644;50.248;19.032;2023-05-19T16:57:51;54.49;49.10;71.55;;
76339;Laerm;26644;50.248;19.032;2023-05-19T17:00:56;55.88;49.87;76.57;;
76339;Laerm;26644;50.248;19.032;2023-05-19T17:04:01;53.76;49.38;73.29;;
76339;Laerm;26644;50.248;19.032;2023-05-19T17:07:05;53.16;49.76;66.57;;
76339;Laerm;26644;50.248;19.032;2023-05-19T17:10:27;54.42;49.46;74.04;;
76339;Laerm;26644;50.248;19.032;2023-05-19T17:13:47;53.31;50.15;61.98;;
76339;Laerm;26644;50.248;19.032;2023-05-19T17:17:06;53.16;49.52;69.60;;
76339;Laerm;26644;50.248;19.032;2023-05-19T17:20:26;53.06;49.43;73.48;;
76339;Laerm;26644;50.248;19.032;2023-05-19T17:23:45;53.38;49.62;64.66;;
76339;Laerm;26644;50.248;19.032;2023-05-19T17:27:07;54.23;50.65;66.55;;
76339;Laerm;26644;50.248;19.032;2023-05-19T17:30:27;53.43;50.13;69.57;;
76339;Laerm;26644;50.248;19.032;2023-05-19T17:33:46;54.59;50.81;72.60;;
76339;Laerm;26644;50.248;19.032;2023-05-19T17:37:05;54.27;51.32;59.18;;
76339;Laerm;26644;50.248;19.032;2023-05-19T17:40:25;54.29;50.71;70.48;;
76339;Laerm;26644;50.248;19.032;2023-05-19T17:43:47;54.42;50.48;70.53;;
76339;Laerm;26644;50.248;19.032;2023-05-19T17:47:06;53.39;49.57;69.03;;